createdAt,value
2023-12-12T00:01:09.318Z,3.45
2023-12-12T00:03:11.255Z,4.15
2023-12-12T00:05:14.697Z,3.72
2023-12-12T00:07:19.017Z,3.65
2023-12-12T00:09:21.846Z,3.08
2023-12-12T00:11:24.750Z,4.20
2023-12-12T00:13:27.926Z,3.50
2023-12-12T00:15:30.878Z,3.72
2023-12-12T00:17:33.894Z,4.70
2023-12-12T00:19:41.692Z,4.05
2023-12-12T00:21:44.498Z,3.40
2023-12-12T00:23:47.770Z,2.80
2023-12-12T00:25:50.584Z,4.43
2023-12-12T00:27:53.465Z,4.28
2023-12-12T00:29:56.346Z,5.68
2023-12-12T00:31:59.282Z,5.60
2023-12-12T00:34:02.212Z,3.45
2023-12-12T00:36:05.705Z,4.03
2023-12-12T00:38:08.607Z,3.83
2023-12-12T00:40:13.429Z,4.10
2023-12-12T00:42:15.349Z,4.97
2023-12-12T00:44:18.194Z,3.45
2023-12-12T00:46:21.117Z,3.35
2023-12-12T00:48:24.148Z,4.40
2023-12-12T00:50:26.018Z,5.35
2023-12-12T00:52:30.803Z,3.55
2023-12-12T00:56:37.695Z,4.13
2023-12-12T00:58:39.788Z,3.58
2023-12-12T01:00:42.632Z,3.63
2023-12-12T01:02:44.508Z,4.60
2023-12-12T01:04:47.419Z,3.30
2023-12-12T01:06:50.415Z,4.30
2023-12-12T01:08:53.916Z,4.20
2023-12-12T01:10:56.737Z,3.38
2023-12-12T01:13:03.028Z,3.92
2023-12-12T01:15:06.763Z,3.58
2023-12-12T01:17:09.657Z,4.10
2023-12-12T01:19:11.800Z,3.63
2023-12-12T01:21:14.854Z,4.40
2023-12-12T01:23:16.745Z,4.90
2023-12-12T01:25:19.716Z,4.10
2023-12-12T01:27:21.729Z,4.10
2023-12-12T01:29:26.095Z,4.03
2023-12-12T01:31:29.030Z,4.60
2023-12-12T01:33:30.910Z,4.90
2023-12-12T01:35:33.803Z,4.05
2023-12-12T01:37:36.711Z,4.28
2023-12-12T01:39:39.784Z,4.13
2023-12-12T01:41:42.592Z,3.83
2023-12-12T01:43:45.428Z,3.97
2023-12-12T01:45:49.774Z,3.13
2023-12-12T01:47:52.955Z,5.00
2023-12-12T01:49:56.363Z,4.95
2023-12-12T01:51:59.376Z,3.65
2023-12-12T01:54:04.252Z,3.50
2023-12-12T01:58:11.059Z,5.03
2023-12-12T02:00:14.834Z,3.80
2023-12-12T02:02:19.751Z,4.28
2023-12-12T02:06:25.806Z,3.80
2023-12-12T02:08:28.175Z,5.28
2023-12-12T02:10:32.514Z,4.43
2023-12-12T02:12:35.389Z,4.68
2023-12-12T02:14:38.745Z,4.68
2023-12-12T02:16:41.734Z,5.05
2023-12-12T02:18:45.996Z,3.63
2023-12-12T02:20:48.909Z,3.80
2023-12-12T02:22:53.129Z,4.95
2023-12-12T02:24:55.105Z,4.50
2023-12-12T02:26:58.492Z,4.20
2023-12-12T02:29:01.636Z,5.18
2023-12-12T02:31:04.945Z,5.70
2023-12-12T02:33:07.930Z,4.40
2023-12-12T02:35:10.824Z,4.03
2023-12-12T02:37:13.689Z,4.03
2023-12-12T02:39:17.963Z,4.15
2023-12-12T02:41:20.839Z,5.35
2023-12-12T02:43:24.012Z,4.25
2023-12-12T02:45:26.962Z,3.83
2023-12-12T02:47:30.139Z,4.65
2023-12-12T02:49:33.358Z,3.30
2023-12-12T02:51:36.301Z,4.68
2023-12-12T02:53:39.141Z,4.10
2023-12-12T02:55:42.417Z,3.80
2023-12-12T02:57:45.362Z,4.30
2023-12-12T02:59:48.239Z,3.45
2023-12-12T03:01:52.062Z,3.70
2023-12-12T03:03:55.001Z,4.40
2023-12-12T03:05:57.871Z,4.40
2023-12-12T03:08:00.841Z,4.07
2023-12-12T03:10:03.975Z,4.00
2023-12-12T03:12:08.548Z,4.28
2023-12-12T03:14:11.453Z,4.10
2023-12-12T03:16:14.355Z,5.35
2023-12-12T03:18:17.365Z,4.75
2023-12-12T03:20:20.241Z,4.18
2023-12-12T03:22:23.136Z,3.47
2023-12-12T03:24:26.190Z,4.07
2023-12-12T03:26:29.017Z,4.45
2023-12-12T03:28:33.348Z,4.43
2023-12-12T03:30:36.271Z,3.65
2023-12-12T03:32:39.320Z,3.90
2023-12-12T03:34:42.224Z,5.57
2023-12-12T03:36:45.409Z,3.80
2023-12-12T03:38:48.374Z,3.63
2023-12-12T03:40:51.216Z,4.03
2023-12-12T03:42:54.100Z,4.57
2023-12-12T03:44:58.365Z,4.45
2023-12-12T03:47:01.527Z,4.55
2023-12-12T03:49:03.468Z,3.90
2023-12-12T03:51:09.649Z,3.75
2023-12-12T03:53:12.593Z,5.15
2023-12-12T03:55:16.281Z,5.20
2023-12-12T03:57:19.338Z,3.75
2023-12-12T03:59:22.223Z,5.38
2023-12-12T04:01:26.677Z,5.45
2023-12-12T04:03:30.246Z,5.97
2023-12-12T04:05:33.185Z,5.43
2023-12-12T04:07:36.168Z,5.85
2023-12-12T04:09:39.164Z,5.68
2023-12-12T04:11:41.993Z,6.47
2023-12-12T04:13:44.852Z,6.95
2023-12-12T04:15:47.625Z,6.18
2023-12-12T04:17:52.017Z,4.63
2023-12-12T04:19:54.959Z,5.55
2023-12-12T04:21:57.925Z,5.68
2023-12-12T04:24:00.806Z,5.40
2023-12-12T04:26:03.777Z,4.60
2023-12-12T04:28:06.866Z,4.15
2023-12-12T04:30:10.867Z,4.55
2023-12-12T04:32:13.744Z,4.28
2023-12-12T04:34:18.091Z,2.97
2023-12-12T04:36:22.160Z,4.45
2023-12-12T04:38:25.084Z,4.40
2023-12-12T04:40:30.733Z,4.45
2023-12-12T04:42:33.577Z,4.00
2023-12-12T04:44:36.476Z,4.55
2023-12-12T04:46:42.229Z,3.53
2023-12-12T04:48:45.616Z,4.20
2023-12-12T04:50:49.853Z,4.05
2023-12-12T04:52:53.154Z,4.53
2023-12-12T04:54:56.281Z,6.72
2023-12-12T04:56:59.364Z,4.95
2023-12-12T04:59:02.150Z,5.40
2023-12-12T05:01:05.353Z,5.00
2023-12-12T05:03:08.342Z,4.15
2023-12-12T05:05:11.265Z,5.13
2023-12-12T05:07:18.116Z,7.03
2023-12-12T05:09:20.974Z,4.63
2023-12-12T05:11:23.903Z,4.68
2023-12-12T05:13:26.876Z,4.63
2023-12-12T05:15:30.228Z,5.40
2023-12-12T05:17:32.366Z,4.95
2023-12-12T05:19:35.874Z,4.80
2023-12-12T05:21:38.777Z,5.22
2023-12-12T05:23:43.087Z,5.90
2023-12-12T05:25:46.829Z,5.78
2023-12-12T05:27:49.766Z,5.85
2023-12-12T05:29:52.659Z,5.43
2023-12-12T05:31:55.494Z,6.30
2023-12-12T05:33:58.537Z,6.18
2023-12-12T05:36:01.464Z,5.82
2023-12-12T05:38:04.613Z,5.53
2023-12-12T05:40:09.927Z,6.78
2023-12-12T05:42:12.852Z,5.85
2023-12-12T05:44:14.665Z,6.30
2023-12-12T05:46:17.560Z,6.57
2023-12-12T05:48:20.519Z,6.28
2023-12-12T05:50:23.913Z,6.43
2023-12-12T05:52:26.847Z,6.15
2023-12-12T05:54:29.729Z,5.88
2023-12-12T05:56:33.967Z,6.55
2023-12-12T05:58:36.089Z,6.05
2023-12-12T06:00:41.117Z,5.82
2023-12-12T06:02:44.126Z,6.70
2023-12-12T06:04:49.584Z,5.75
2023-12-12T06:06:51.729Z,5.82
2023-12-12T06:08:55.733Z,5.90
2023-12-12T06:10:58.561Z,5.35
2023-12-12T06:13:02.827Z,5.78
2023-12-12T06:15:08.689Z,5.60
2023-12-12T06:17:12.659Z,4.70
2023-12-12T06:19:15.551Z,5.90
2023-12-12T06:21:18.731Z,4.82
2023-12-12T06:23:21.622Z,4.93
2023-12-12T06:25:24.501Z,5.38
2023-12-12T06:27:27.361Z,5.03
2023-12-12T06:29:31.558Z,5.82
2023-12-12T06:31:34.432Z,6.03
2023-12-12T06:33:37.553Z,5.55
2023-12-12T06:35:40.503Z,4.85
2023-12-12T06:37:44.036Z,4.90
2023-12-12T06:39:47.671Z,4.93
2023-12-12T06:41:49.573Z,5.45
2023-12-12T06:43:52.503Z,5.25
2023-12-12T06:45:56.778Z,4.65
2023-12-12T06:47:59.837Z,4.85
2023-12-12T06:50:04.383Z,4.55
2023-12-12T06:52:07.621Z,5.47
2023-12-12T06:54:10.621Z,4.78
2023-12-12T06:56:13.531Z,5.68
2023-12-12T06:58:16.614Z,4.10
2023-12-12T07:00:21.231Z,4.85
2023-12-12T07:02:24.764Z,6.63
2023-12-12T07:04:27.784Z,4.93
2023-12-12T07:06:30.786Z,3.67
2023-12-12T07:08:33.701Z,4.25
2023-12-12T07:10:36.668Z,4.38
2023-12-12T07:12:39.706Z,4.53
2023-12-12T07:14:43.160Z,4.18
2023-12-12T07:16:45.163Z,3.97
2023-12-12T07:18:49.601Z,4.97
2023-12-12T07:20:52.443Z,3.13
2023-12-12T07:22:55.364Z,4.45
2023-12-12T07:24:57.406Z,4.05
2023-12-12T07:27:00.287Z,4.38
2023-12-12T07:29:03.142Z,4.68
2023-12-12T07:31:06.559Z,3.75
2023-12-12T07:33:09.914Z,3.10
2023-12-12T07:35:14.298Z,4.18
2023-12-12T07:37:18.749Z,3.88
2023-12-12T07:39:21.652Z,3.40
2023-12-12T07:41:24.557Z,3.72
2023-12-12T07:43:27.985Z,3.85
2023-12-12T07:45:30.921Z,3.65
2023-12-12T07:47:40.079Z,3.70
2023-12-12T07:49:46.381Z,3.80
2023-12-12T07:51:50.576Z,3.13
2023-12-12T07:53:53.003Z,4.53
2023-12-12T07:55:55.915Z,5.45
2023-12-12T07:58:00.821Z,3.55
2023-12-12T08:00:07.118Z,3.92
2023-12-12T08:02:14.914Z,3.60
2023-12-12T08:04:19.097Z,4.35
2023-12-12T08:06:22.255Z,4.40
2023-12-12T08:08:26.569Z,3.78
2023-12-12T08:10:29.774Z,3.78
2023-12-12T08:12:32.876Z,3.88
2023-12-12T08:14:35.778Z,3.20
2023-12-12T08:16:38.698Z,4.03
2023-12-12T08:18:42.010Z,4.25
2023-12-12T08:20:45.037Z,3.70
2023-12-12T08:22:46.982Z,3.50
2023-12-12T08:24:51.949Z,3.55
2023-12-12T08:26:55.194Z,4.38
2023-12-12T08:28:58.015Z,4.32
2023-12-12T08:31:01.095Z,3.40
2023-12-12T08:33:04.521Z,4.13
2023-12-12T08:35:08.664Z,4.35
2023-12-12T08:37:10.772Z,3.63
2023-12-12T08:39:14.479Z,3.42
2023-12-12T08:41:18.701Z,3.70
2023-12-12T08:43:21.712Z,4.20
2023-12-12T08:45:24.764Z,3.67
2023-12-12T08:47:30.009Z,4.18
2023-12-12T08:49:35.268Z,4.20
2023-12-12T08:51:38.250Z,4.57
2023-12-12T08:53:41.237Z,4.20
2023-12-12T08:55:44.318Z,4.50
2023-12-12T08:57:49.457Z,5.28
2023-12-12T08:59:52.437Z,3.85
2023-12-12T09:01:55.374Z,4.00
2023-12-12T09:03:58.525Z,4.35
2023-12-12T09:06:01.553Z,3.65
2023-12-12T09:08:05.023Z,4.00
2023-12-12T09:10:09.245Z,3.75
2023-12-12T09:12:12.162Z,4.13
2023-12-12T09:14:16.519Z,3.58
2023-12-12T09:16:19.465Z,3.30
2023-12-12T09:18:22.504Z,3.63
2023-12-12T09:20:24.681Z,2.75
2023-12-12T09:22:27.767Z,2.63
2023-12-12T09:24:30.774Z,2.95
2023-12-12T09:26:33.699Z,3.45
2023-12-12T09:28:37.600Z,3.00
2023-12-12T09:30:42.363Z,2.53
2023-12-12T09:34:47.301Z,2.30
2023-12-12T09:36:50.269Z,3.45
2023-12-12T09:38:53.396Z,4.05
2023-12-12T09:40:56.501Z,3.03
2023-12-12T09:43:00.222Z,3.42
2023-12-12T09:45:06.243Z,2.33
2023-12-12T09:47:10.667Z,2.58
2023-12-12T09:49:14.515Z,3.20
2023-12-12T09:51:17.605Z,2.07
2023-12-12T09:53:21.022Z,2.15
2023-12-12T09:55:25.362Z,2.33
2023-12-12T09:57:30.155Z,2.42
2023-12-12T09:59:33.620Z,2.08
2023-12-12T10:01:37.255Z,2.55
2023-12-12T10:03:42.096Z,3.15
2023-12-12T10:08:00.188Z,3.17
2023-12-12T10:10:13.800Z,2.70
2023-12-12T10:12:19.330Z,2.40
2023-12-12T10:14:37.406Z,2.83
2023-12-12T10:16:41.170Z,3.05
2023-12-12T10:18:48.381Z,2.45
2023-12-12T10:20:51.873Z,3.17
2023-12-12T10:22:58.535Z,2.67
2023-12-12T10:25:12.456Z,2.10
2023-12-12T10:27:21.866Z,3.50
2023-12-12T10:29:25.094Z,2.45
2023-12-12T10:31:27.660Z,2.60
2023-12-12T10:33:30.801Z,2.80
2023-12-12T10:35:36.152Z,2.43
2023-12-12T10:37:38.192Z,3.13
2023-12-12T10:39:44.702Z,2.95
2023-12-12T10:41:52.638Z,1.98
2023-12-12T10:43:57.269Z,2.95
2023-12-12T10:46:00.340Z,2.45
2023-12-12T10:48:07.332Z,2.50
2023-12-12T10:50:14.548Z,3.50
2023-12-12T10:52:19.430Z,2.75
2023-12-12T10:56:36.833Z,3.08
2023-12-12T10:58:41.376Z,2.65
2023-12-12T11:00:45.207Z,1.98
2023-12-12T11:02:49.763Z,2.90
2023-12-12T11:04:56.240Z,2.47
2023-12-12T11:09:04.605Z,2.33
2023-12-12T11:11:13.072Z,3.05
2023-12-12T11:13:18.365Z,2.25
2023-12-12T11:15:23.136Z,2.50
2023-12-12T11:17:26.074Z,2.63
2023-12-12T11:19:30.817Z,2.25
2023-12-12T11:21:44.856Z,2.33
2023-12-12T11:23:56.657Z,2.80
2023-12-12T11:26:02.673Z,2.75
2023-12-12T11:28:08.024Z,3.22
2023-12-12T11:30:12.628Z,2.80
2023-12-12T11:32:17.790Z,2.45
2023-12-12T11:34:22.101Z,3.40
2023-12-12T11:36:27.206Z,2.40
2023-12-12T11:38:32.104Z,2.78
2023-12-12T11:42:42.431Z,2.95
2023-12-12T11:44:49.023Z,2.88
2023-12-12T11:46:53.472Z,3.45
2023-12-12T11:48:56.466Z,2.88
2023-12-12T11:50:59.518Z,3.28
2023-12-12T11:53:05.799Z,2.45
2023-12-12T11:55:10.905Z,3.10
2023-12-12T11:57:13.923Z,3.17
2023-12-12T11:59:24.261Z,2.92
2023-12-12T12:01:27.496Z,2.92
2023-12-12T12:03:29.698Z,4.53
2023-12-12T12:05:32.842Z,3.15
2023-12-12T12:07:36.173Z,3.20
2023-12-12T12:09:40.649Z,3.60
2023-12-12T12:11:45.674Z,3.08
2023-12-12T12:13:48.674Z,3.13
2023-12-12T12:15:52.022Z,3.00
2023-12-12T12:17:55.261Z,3.30
2023-12-12T12:19:59.263Z,3.65
2023-12-12T12:22:06.957Z,3.60
2023-12-12T12:24:08.922Z,3.13
2023-12-12T12:26:12.034Z,3.78
2023-12-12T12:28:14.928Z,3.65
2023-12-12T12:30:20.831Z,2.88
2023-12-12T12:32:24.344Z,3.42
2023-12-12T12:34:27.850Z,3.25
2023-12-12T12:36:38.701Z,2.42
2023-12-12T12:39:05.631Z,3.40
2023-12-12T12:41:23.112Z,3.47
2023-12-12T12:43:26.721Z,2.97
2023-12-12T12:45:28.831Z,3.10
2023-12-12T12:47:33.472Z,3.00
2023-12-12T12:49:36.501Z,2.80
2023-12-12T12:51:40.681Z,3.63
2023-12-12T12:53:44.657Z,3.35
2023-12-12T12:55:48.679Z,3.33
2023-12-12T12:57:51.226Z,3.55
2023-12-12T12:59:54.305Z,2.47
2023-12-12T13:01:57.399Z,3.35
2023-12-12T13:04:01.861Z,2.97
2023-12-12T13:06:07.476Z,2.17
2023-12-12T13:08:11.271Z,2.97
2023-12-12T13:10:16.309Z,2.72
2023-12-12T13:12:19.291Z,3.17
2023-12-12T13:14:22.500Z,2.75
2023-12-12T13:16:24.489Z,2.83
2023-12-12T13:18:27.521Z,2.95
2023-12-12T13:20:31.830Z,3.10
2023-12-12T13:22:33.981Z,2.83
2023-12-12T13:24:37.159Z,2.85
2023-12-12T13:26:39.091Z,2.67
2023-12-12T13:28:42.110Z,3.67
2023-12-12T13:30:45.128Z,2.80
2023-12-12T13:32:48.199Z,3.13
2023-12-12T13:34:51.645Z,2.85
2023-12-12T13:36:55.912Z,2.90
2023-12-12T13:38:58.853Z,3.55
2023-12-12T13:41:01.923Z,2.58
2023-12-12T13:43:05.206Z,2.97
2023-12-12T13:45:09.942Z,2.38
2023-12-12T13:47:12.878Z,3.33
2023-12-12T13:49:14.992Z,1.92
2023-12-12T13:51:21.369Z,2.40
2023-12-12T13:53:28.786Z,2.65
2023-12-12T13:55:32.452Z,2.80
2023-12-12T13:57:35.555Z,2.03
2023-12-12T13:59:39.152Z,2.10
2023-12-12T14:01:42.153Z,2.83
2023-12-12T14:03:45.238Z,2.83
2023-12-12T14:05:48.345Z,2.42
2023-12-12T14:07:50.450Z,2.85
2023-12-12T14:09:54.805Z,2.53
2023-12-12T14:11:56.858Z,2.47
2023-12-12T14:13:59.753Z,3.20
2023-12-12T14:16:03.667Z,2.33
2023-12-12T14:18:06.803Z,3.20
2023-12-12T14:20:10.638Z,2.88
2023-12-12T14:22:14.351Z,2.90
2023-12-12T14:24:17.968Z,3.08
2023-12-12T14:26:24.992Z,2.90
2023-12-12T14:28:29.468Z,3.35
2023-12-12T14:30:34.032Z,3.03
2023-12-12T14:32:37.598Z,3.22
2023-12-12T14:34:41.417Z,2.80
2023-12-12T14:36:44.953Z,2.30
2023-12-12T14:38:47.859Z,2.83
2023-12-12T14:40:50.835Z,3.03
2023-12-12T14:42:55.130Z,2.78
2023-12-12T14:44:58.170Z,3.05
2023-12-12T14:47:01.321Z,3.45
2023-12-12T14:49:06.422Z,2.83
2023-12-12T14:51:08.540Z,2.97
2023-12-12T14:53:11.533Z,2.95
2023-12-12T14:55:17.015Z,4.07
2023-12-12T14:57:20.901Z,3.08
2023-12-12T14:59:26.895Z,4.05
2023-12-12T15:01:30.006Z,3.97
2023-12-12T15:03:33.142Z,4.15
2023-12-12T15:05:36.297Z,3.60
2023-12-12T15:07:39.465Z,4.15
2023-12-12T15:09:42.505Z,4.57
2023-12-12T15:11:45.443Z,4.20
2023-12-12T15:13:48.676Z,4.10
2023-12-12T15:15:53.059Z,3.95
2023-12-12T15:17:55.075Z,4.80
2023-12-12T15:19:58.033Z,4.68
2023-12-12T15:22:01.032Z,4.88
2023-12-12T15:24:04.211Z,5.10
2023-12-12T15:26:07.739Z,4.60
2023-12-12T15:28:24.399Z,5.50
2023-12-12T15:30:32.784Z,4.72
2023-12-12T15:32:37.713Z,5.35
2023-12-12T15:34:41.043Z,5.97
2023-12-12T15:36:44.065Z,5.85
2023-12-12T15:38:48.563Z,6.72
2023-12-12T15:40:51.740Z,7.55
2023-12-12T15:42:53.736Z,5.78
2023-12-12T15:44:56.797Z,5.72
2023-12-12T15:46:59.735Z,6.78
2023-12-12T15:49:04.498Z,7.05
2023-12-12T15:51:07.905Z,5.80
2023-12-12T15:53:10.808Z,6.78
2023-12-12T15:55:14.193Z,7.82
2023-12-12T15:57:17.080Z,8.18
2023-12-12T15:59:20.908Z,6.90
2023-12-12T16:01:24.779Z,7.13
2023-12-12T16:03:27.878Z,7.40
2023-12-12T16:05:35.600Z,8.65
2023-12-12T16:07:40.123Z,9.15
2023-12-12T16:09:43.074Z,8.02
2023-12-12T16:11:47.463Z,6.43
2023-12-12T16:13:50.549Z,8.43
2023-12-12T16:15:52.553Z,8.30
2023-12-12T16:17:56.766Z,8.38
2023-12-12T16:19:59.953Z,7.90
2023-12-12T16:22:05.193Z,8.95
2023-12-12T16:24:08.801Z,9.77
2023-12-12T16:26:12.173Z,7.70
2023-12-12T16:28:15.254Z,8.00
2023-12-12T16:30:21.680Z,9.25
2023-12-12T16:32:24.821Z,9.55
2023-12-12T16:34:26.900Z,9.00
2023-12-12T16:36:31.663Z,8.77
2023-12-12T16:40:39.917Z,8.45
2023-12-12T16:42:44.233Z,9.63
2023-12-12T16:44:47.168Z,8.98
2023-12-12T16:46:50.162Z,9.23
2023-12-12T16:48:53.216Z,12.07
2023-12-12T16:50:57.090Z,10.50
2023-12-12T16:53:00.134Z,9.75
2023-12-12T16:55:05.686Z,10.45
2023-12-12T16:57:08.768Z,10.20
2023-12-12T16:59:11.778Z,11.02
2023-12-12T17:01:15.589Z,11.27
2023-12-12T17:03:20.916Z,11.05
2023-12-12T17:05:24.597Z,10.30
2023-12-12T17:07:27.721Z,9.98
2023-12-12T17:09:29.628Z,10.82
2023-12-12T17:11:35.372Z,9.60
2023-12-12T17:13:37.267Z,8.50
2023-12-12T17:15:40.746Z,9.52
2023-12-12T17:17:44.522Z,10.55
2023-12-12T17:19:49.605Z,9.70
2023-12-12T17:21:54.157Z,10.60
2023-12-12T17:23:56.364Z,10.38
2023-12-12T17:25:59.313Z,12.25
2023-12-12T17:28:03.592Z,10.85
2023-12-12T17:30:10.432Z,11.18
2023-12-12T17:32:14.565Z,12.75
2023-12-12T17:34:17.678Z,10.45
2023-12-12T17:36:21.134Z,10.50
2023-12-12T17:38:23.997Z,11.20
2023-12-12T17:40:26.098Z,10.38
2023-12-12T17:42:30.586Z,8.85
2023-12-12T17:44:34.910Z,11.38
2023-12-12T17:46:42.354Z,11.05
2023-12-12T17:48:45.433Z,10.98
2023-12-12T17:50:48.929Z,13.15
2023-12-12T17:52:51.898Z,11.50
2023-12-12T17:54:54.882Z,11.15
2023-12-12T17:56:57.755Z,12.98
2023-12-12T17:59:03.145Z,13.98
2023-12-12T18:01:09.030Z,13.85
2023-12-12T18:03:12.513Z,11.00
2023-12-12T18:05:17.003Z,11.68
2023-12-12T18:07:19.958Z,13.68
2023-12-12T18:09:22.882Z,13.38
2023-12-12T18:11:26.202Z,9.07
2023-12-12T18:13:29.187Z,11.07
2023-12-12T18:15:32.142Z,13.80
2023-12-12T18:17:38.915Z,11.40
2023-12-12T18:19:41.104Z,67.00
2023-12-12T18:21:44.180Z,36.67
2023-12-12T18:23:47.156Z,15.85
2023-12-12T18:25:50.214Z,12.30
2023-12-12T18:27:53.225Z,12.10
2023-12-12T18:29:56.139Z,11.15
2023-12-12T18:31:59.462Z,12.30
2023-12-12T18:34:04.202Z,10.60
2023-12-12T18:36:09.501Z,16.23
2023-12-12T18:38:12.527Z,14.40
2023-12-12T18:40:18.298Z,11.30
2023-12-12T18:42:23.222Z,12.90
2023-12-12T18:46:29.292Z,11.77
2023-12-12T18:48:33.903Z,10.10
2023-12-12T18:50:38.258Z,10.43
2023-12-12T18:52:40.658Z,8.88
2023-12-12T18:54:43.562Z,11.45
2023-12-12T18:56:46.449Z,10.77
2023-12-12T18:58:52.071Z,10.07
2023-12-12T19:00:55.326Z,10.32
2023-12-12T19:02:58.636Z,10.45
2023-12-12T19:05:01.788Z,10.35
2023-12-12T19:07:06.471Z,8.40
2023-12-12T19:09:10.509Z,9.52
2023-12-12T19:11:15.009Z,9.27
2023-12-12T19:13:18.406Z,10.15
2023-12-12T19:15:22.960Z,8.55
2023-12-12T19:17:26.224Z,10.18
2023-12-12T19:19:30.557Z,8.52
2023-12-12T19:21:35.450Z,8.48
2023-12-12T19:23:40.031Z,9.38
2023-12-12T19:25:42.962Z,10.95
2023-12-12T19:27:46.452Z,7.93
2023-12-12T19:29:48.392Z,8.90
2023-12-12T19:31:52.211Z,9.90
2023-12-12T19:33:55.267Z,7.82
2023-12-12T19:35:58.234Z,8.15
2023-12-12T19:38:01.107Z,7.63
2023-12-12T19:40:08.253Z,8.80
2023-12-12T19:42:11.599Z,9.00
2023-12-12T19:44:14.709Z,9.60
2023-12-12T19:46:18.429Z,9.68
2023-12-12T19:48:21.618Z,10.43
2023-12-12T19:50:24.715Z,10.43
2023-12-12T19:52:27.978Z,10.52
2023-12-12T19:54:46.068Z,6.80
2023-12-12T19:56:50.354Z,10.43
2023-12-12T19:58:53.465Z,9.52
2023-12-12T20:00:56.400Z,11.70
2023-12-12T20:02:59.280Z,13.43
2023-12-12T20:05:02.381Z,10.75
2023-12-12T20:07:06.939Z,8.65
2023-12-12T20:09:09.781Z,6.55
2023-12-12T20:11:12.669Z,7.03
2023-12-12T20:13:16.938Z,4.47
2023-12-12T20:15:21.335Z,3.08
2023-12-12T20:17:24.956Z,3.67
2023-12-12T20:19:28.090Z,1.50
2023-12-12T20:21:32.173Z,1.98
2023-12-12T20:23:35.094Z,1.40
2023-12-12T20:25:38.069Z,0.80
2023-12-12T20:27:45.831Z,1.00
2023-12-12T20:29:50.795Z,1.23
2023-12-12T20:31:53.870Z,4.85
2023-12-12T20:33:56.961Z,2.25
2023-12-12T20:36:00.165Z,1.67
2023-12-12T20:38:03.020Z,2.10
2023-12-12T20:40:08.873Z,1.88
2023-12-12T20:42:10.854Z,1.48
2023-12-12T20:44:13.750Z,2.03
2023-12-12T20:46:19.326Z,1.52
2023-12-12T20:48:22.444Z,1.90
2023-12-12T20:50:24.589Z,2.13
2023-12-12T20:52:29.884Z,2.78
2023-12-12T20:54:35.463Z,4.47
2023-12-12T20:56:42.416Z,5.32
2023-12-12T20:58:45.414Z,5.43
2023-12-12T21:00:48.473Z,5.22
2023-12-12T21:02:52.797Z,4.80
2023-12-12T21:04:55.759Z,6.50
2023-12-12T21:06:58.752Z,6.40
2023-12-12T21:09:01.644Z,5.32
2023-12-12T21:11:04.822Z,3.72
2023-12-12T21:13:07.782Z,4.15
2023-12-12T21:15:11.512Z,4.00
2023-12-12T21:17:13.539Z,4.35
2023-12-12T21:19:17.879Z,2.95
2023-12-12T21:21:20.859Z,3.50
2023-12-12T21:23:24.135Z,2.67
2023-12-12T21:25:27.165Z,2.88
2023-12-12T21:27:30.528Z,3.60
2023-12-12T21:29:35.958Z,6.20
2023-12-12T21:31:38.966Z,6.07
2023-12-12T21:33:42.395Z,6.70
2023-12-12T21:35:51.627Z,5.00
2023-12-12T21:37:55.268Z,5.03
2023-12-12T21:40:02.387Z,3.72
2023-12-12T21:42:06.307Z,4.00
2023-12-12T21:44:09.266Z,3.38
2023-12-12T21:46:12.222Z,3.60
2023-12-12T21:48:15.151Z,4.10
2023-12-12T21:50:19.009Z,3.00
2023-12-12T21:52:23.684Z,3.75
2023-12-12T21:54:26.659Z,4.35
2023-12-12T21:56:29.676Z,4.18
2023-12-12T21:58:32.684Z,3.53
2023-12-12T22:00:35.676Z,3.55
2023-12-12T22:02:38.911Z,3.20
2023-12-12T22:04:42.612Z,3.03
2023-12-12T22:06:45.526Z,2.85
2023-12-12T22:08:49.829Z,2.00
2023-12-12T22:10:52.810Z,2.72
2023-12-12T22:12:55.861Z,3.40
2023-12-12T22:14:58.803Z,3.30
2023-12-12T22:17:01.708Z,3.22
2023-12-12T22:19:04.819Z,4.05
2023-12-12T22:21:08.040Z,4.15
2023-12-12T22:23:10.951Z,3.92
2023-12-12T22:25:14.796Z,3.35
2023-12-12T22:27:17.722Z,3.37
2023-12-12T22:29:20.857Z,3.78
2023-12-12T22:31:24.324Z,3.47
2023-12-12T22:33:26.429Z,4.13
2023-12-12T22:35:29.399Z,4.00
2023-12-12T22:37:31.530Z,4.05
2023-12-12T22:39:34.997Z,3.17
2023-12-12T22:41:39.541Z,3.60
2023-12-12T22:43:42.230Z,4.22
2023-12-12T22:45:45.233Z,3.63
2023-12-12T22:47:48.179Z,3.90
2023-12-12T22:49:51.262Z,4.10
2023-12-12T22:51:54.229Z,4.53
2023-12-12T22:53:57.541Z,3.30
2023-12-12T22:56:00.425Z,3.15
2023-12-12T22:58:04.965Z,3.53
2023-12-12T23:00:26.300Z,3.22
2023-12-12T23:02:29.173Z,3.58
2023-12-12T23:04:31.255Z,2.13
2023-12-12T23:06:34.453Z,2.53
2023-12-12T23:08:37.664Z,2.70
2023-12-12T23:10:41.075Z,2.20
2023-12-12T23:12:43.979Z,2.50
2023-12-12T23:14:48.393Z,1.92
2023-12-12T23:16:50.381Z,2.17
2023-12-12T23:18:53.640Z,1.80
2023-12-12T23:20:56.987Z,1.73
2023-12-12T23:22:58.988Z,2.00
2023-12-12T23:25:02.126Z,1.77
2023-12-12T23:27:05.428Z,1.80
2023-12-12T23:29:08.696Z,1.55
2023-12-12T23:31:13.127Z,1.38
2023-12-12T23:33:15.414Z,1.38
2023-12-12T23:35:18.387Z,1.88
2023-12-12T23:37:23.919Z,1.27
2023-12-12T23:39:26.965Z,1.30
2023-12-12T23:41:30.157Z,1.40
2023-12-12T23:43:33.085Z,1.33
2023-12-12T23:45:38.360Z,1.33
2023-12-12T23:47:43.789Z,1.73
2023-12-12T23:49:46.823Z,0.90
2023-12-12T23:51:49.542Z,1.52
2023-12-12T23:53:57.013Z,1.73
2023-12-12T23:56:00.153Z,1.52
2023-12-12T23:58:05.830Z,1.60
